sensor_id;sensor_type;location;lat;lon;timestamp;P1;durP1;ratioP1;P2;durP2;ratioP2
46439;SDS011;32138;50.966;6.968;2022-07-29T00:00:30;8.18;;;2.90;;
46439;SDS011;32138;50.966;6.968;2022-07-29T00:02:31;6.40;;;2.20;;
46439;SDS011;32138;50.966;6.968;2022-07-29T00:04:35;13.88;;;2.28;;
46439;SDS011;32138;50.966;6.968;2022-07-29T00:06:36;5.90;;;1.98;;
46439;SDS011;32138;50.966;6.968;2022-07-29T00:08:37;6.25;;;2.42;;
46439;SDS011;32138;50.966;6.968;2022-07-29T00:10:38;4.35;;;1.92;;
46439;SDS011;32138;50.966;6.968;2022-07-29T00:12:39;6.07;;;2.75;;
46439;SDS011;32138;50.966;6.968;2022-07-29T00:14:40;5.90;;;2.20;;
46439;SDS011;32138;50.966;6.968;2022-07-29T00:16:40;6.72;;;1.95;;
46439;SDS011;32138;50.966;6.968;2022-07-29T00:18:41;6.07;;;2.05;;
46439;SDS011;32138;50.966;6.968;2022-07-29T00:20:42;6.20;;;2.25;;
46439;SDS011;32138;50.966;6.968;2022-07-29T00:22:43;7.18;;;1.83;;
46439;SDS011;32138;50.966;6.968;2022-07-29T00:24:44;5.53;;;2.10;;
46439;SDS011;32138;50.966;6.968;2022-07-29T00:26:44;4.95;;;2.42;;
46439;SDS011;32138;50.966;6.968;2022-07-29T00:28:45;6.72;;;2.50;;
46439;SDS011;32138;50.966;6.968;2022-07-29T00:30:46;3.70;;;1.75;;
46439;SDS011;32138;50.966;6.968;2022-07-29T00:32:46;5.45;;;1.77;;
46439;SDS011;32138;50.966;6.968;2022-07-29T00:34:47;8.05;;;2.53;;
46439;SDS011;32138;50.966;6.968;2022-07-29T00:37:07;4.07;;;1.67;;
46439;SDS011;32138;50.966;6.968;2022-07-29T00:39:07;7.28;;;2.50;;
46439;SDS011;32138;50.966;6.968;2022-07-29T00:41:08;4.38;;;2.10;;
46439;SDS011;32138;50.966;6.968;2022-07-29T00:43:09;5.88;;;2.25;;
46439;SDS011;32138;50.966;6.968;2022-07-29T00:45:12;5.00;;;2.13;;
46439;SDS011;32138;50.966;6.968;2022-07-29T00:47:14;5.18;;;2.20;;
46439;SDS011;32138;50.966;6.968;2022-07-29T00:49:15;3.65;;;1.90;;
46439;SDS011;32138;50.966;6.968;2022-07-29T00:51:16;3.80;;;1.55;;
46439;SDS011;32138;50.966;6.968;2022-07-29T00:53:16;4.50;;;1.58;;
46439;SDS011;32138;50.966;6.968;2022-07-29T00:55:17;8.77;;;3.03;;
46439;SDS011;32138;50.966;6.968;2022-07-29T00:57:18;6.03;;;2.22;;
46439;SDS011;32138;50.966;6.968;2022-07-29T00:59:20;4.22;;;1.65;;
46439;SDS011;32138;50.966;6.968;2022-07-29T01:01:21;6.20;;;1.83;;
46439;SDS011;32138;50.966;6.968;2022-07-29T01:03:21;7.55;;;2.08;;
46439;SDS011;32138;50.966;6.968;2022-07-29T01:05:23;3.78;;;2.13;;
46439;SDS011;32138;50.966;6.968;2022-07-29T01:07:26;4.68;;;1.77;;
46439;SDS011;32138;50.966;6.968;2022-07-29T01:09:29;9.18;;;2.25;;
46439;SDS011;32138;50.966;6.968;2022-07-29T01:11:32;5.97;;;1.52;;
46439;SDS011;32138;50.966;6.968;2022-07-29T01:13:34;5.57;;;1.60;;
46439;SDS011;32138;50.966;6.968;2022-07-29T01:15:39;4.55;;;2.22;;
46439;SDS011;32138;50.966;6.968;2022-07-29T01:17:48;5.20;;;1.80;;
46439;SDS011;32138;50.966;6.968;2022-07-29T01:22:29;3.28;;;1.60;;
46439;SDS011;32138;50.966;6.968;2022-07-29T01:29:30;4.15;;;1.48;;
46439;SDS011;32138;50.966;6.968;2022-07-29T01:34:05;6.65;;;2.13;;
46439;SDS011;32138;50.966;6.968;2022-07-29T01:36:10;5.82;;;1.67;;
46439;SDS011;32138;50.966;6.968;2022-07-29T01:38:19;5.20;;;2.08;;
46439;SDS011;32138;50.966;6.968;2022-07-29T01:40:27;4.50;;;1.60;;
46439;SDS011;32138;50.966;6.968;2022-07-29T01:42:41;5.43;;;1.88;;
46439;SDS011;32138;50.966;6.968;2022-07-29T01:44:46;10.45;;;2.22;;
46439;SDS011;32138;50.966;6.968;2022-07-29T01:46:57;5.65;;;1.80;;
46439;SDS011;32138;50.966;6.968;2022-07-29T01:49:14;4.00;;;1.83;;
46439;SDS011;32138;50.966;6.968;2022-07-29T01:53:29;10.90;;;2.40;;
46439;SDS011;32138;50.966;6.968;2022-07-29T01:55:40;5.55;;;1.80;;
46439;SDS011;32138;50.966;6.968;2022-07-29T01:57:45;7.38;;;2.28;;
46439;SDS011;32138;50.966;6.968;2022-07-29T01:59:49;4.63;;;2.40;;
46439;SDS011;32138;50.966;6.968;2022-07-29T02:01:52;5.80;;;2.00;;
46439;SDS011;32138;50.966;6.968;2022-07-29T02:03:54;6.32;;;2.20;;
46439;SDS011;32138;50.966;6.968;2022-07-29T02:05:57;8.80;;;2.08;;
46439;SDS011;32138;50.966;6.968;2022-07-29T02:08:00;7.30;;;2.10;;
46439;SDS011;32138;50.966;6.968;2022-07-29T02:10:02;6.07;;;2.15;;
46439;SDS011;32138;50.966;6.968;2022-07-29T02:12:06;4.30;;;1.75;;
46439;SDS011;32138;50.966;6.968;2022-07-29T02:14:09;8.07;;;2.10;;
46439;SDS011;32138;50.966;6.968;2022-07-29T02:16:12;5.50;;;1.70;;
46439;SDS011;32138;50.966;6.968;2022-07-29T02:18:17;5.40;;;2.70;;
46439;SDS011;32138;50.966;6.968;2022-07-29T02:20:18;8.77;;;2.42;;
46439;SDS011;32138;50.966;6.968;2022-07-29T02:22:19;7.05;;;2.47;;
46439;SDS011;32138;50.966;6.968;2022-07-29T02:24:23;5.55;;;2.28;;
46439;SDS011;32138;50.966;6.968;2022-07-29T02:26:25;7.53;;;2.20;;
46439;SDS011;32138;50.966;6.968;2022-07-29T02:28:27;7.38;;;2.72;;
46439;SDS011;32138;50.966;6.968;2022-07-29T02:30:30;4.25;;;1.75;;
46439;SDS011;32138;50.966;6.968;2022-07-29T02:32:34;6.25;;;2.40;;
46439;SDS011;32138;50.966;6.968;2022-07-29T02:34:37;9.07;;;2.10;;
46439;SDS011;32138;50.966;6.968;2022-07-29T02:36:39;6.28;;;2.33;;
46439;SDS011;32138;50.966;6.968;2022-07-29T02:38:43;6.20;;;2.10;;
46439;SDS011;32138;50.966;6.968;2022-07-29T02:40:51;8.05;;;2.25;;
46439;SDS011;32138;50.966;6.968;2022-07-29T02:42:53;6.97;;;2.30;;
46439;SDS011;32138;50.966;6.968;2022-07-29T02:44:55;5.63;;;2.35;;
46439;SDS011;32138;50.966;6.968;2022-07-29T02:47:01;6.68;;;2.60;;
46439;SDS011;32138;50.966;6.968;2022-07-29T02:52:02;5.60;;;2.10;;
46439;SDS011;32138;50.966;6.968;2022-07-29T02:54:05;7.10;;;2.15;;
46439;SDS011;32138;50.966;6.968;2022-07-29T02:56:10;6.32;;;2.35;;
46439;SDS011;32138;50.966;6.968;2022-07-29T02:58:30;4.22;;;2.13;;
46439;SDS011;32138;50.966;6.968;2022-07-29T03:00:36;6.35;;;2.17;;
46439;SDS011;32138;50.966;6.968;2022-07-29T03:02:43;6.68;;;2.70;;
46439;SDS011;32138;50.966;6.968;2022-07-29T03:04:45;9.30;;;2.33;;
46439;SDS011;32138;50.966;6.968;2022-07-29T03:06:49;4.22;;;1.83;;
46439;SDS011;32138;50.966;6.968;2022-07-29T03:08:51;6.00;;;2.20;;
46439;SDS011;32138;50.966;6.968;2022-07-29T03:10:52;6.03;;;2.10;;
46439;SDS011;32138;50.966;6.968;2022-07-29T03:12:54;8.85;;;2.22;;
46439;SDS011;32138;50.966;6.968;2022-07-29T03:14:56;5.07;;;2.22;;
46439;SDS011;32138;50.966;6.968;2022-07-29T03:16:59;12.00;;;2.78;;
46439;SDS011;32138;50.966;6.968;2022-07-29T03:19:00;8.30;;;2.10;;
46439;SDS011;32138;50.966;6.968;2022-07-29T03:21:02;7.80;;;2.15;;
46439;SDS011;32138;50.966;6.968;2022-07-29T03:23:03;4.93;;;2.08;;
46439;SDS011;32138;50.966;6.968;2022-07-29T03:25:07;5.57;;;2.08;;
46439;SDS011;32138;50.966;6.968;2022-07-29T03:27:11;3.95;;;2.08;;
46439;SDS011;32138;50.966;6.968;2022-07-29T03:29:12;8.05;;;2.45;;
46439;SDS011;32138;50.966;6.968;2022-07-29T03:31:13;7.55;;;2.25;;
46439;SDS011;32138;50.966;6.968;2022-07-29T03:33:14;5.10;;;2.03;;
46439;SDS011;32138;50.966;6.968;2022-07-29T03:35:15;5.53;;;2.20;;
46439;SDS011;32138;50.966;6.968;2022-07-29T03:37:22;8.38;;;2.30;;
46439;SDS011;32138;50.966;6.968;2022-07-29T03:39:24;6.50;;;1.90;;
46439;SDS011;32138;50.966;6.968;2022-07-29T03:41:29;7.50;;;1.95;;
46439;SDS011;32138;50.966;6.968;2022-07-29T03:43:32;6.55;;;2.03;;
46439;SDS011;32138;50.966;6.968;2022-07-29T03:45:38;6.75;;;2.22;;
46439;SDS011;32138;50.966;6.968;2022-07-29T03:47:48;5.55;;;2.00;;
46439;SDS011;32138;50.966;6.968;2022-07-29T03:50:00;4.93;;;1.95;;
46439;SDS011;32138;50.966;6.968;2022-07-29T03:52:06;6.03;;;2.33;;
46439;SDS011;32138;50.966;6.968;2022-07-29T03:54:07;8.07;;;2.30;;
46439;SDS011;32138;50.966;6.968;2022-07-29T03:56:08;6.90;;;2.72;;
46439;SDS011;32138;50.966;6.968;2022-07-29T03:58:10;6.43;;;2.10;;
46439;SDS011;32138;50.966;6.968;2022-07-29T04:00:13;3.10;;;2.00;;
46439;SDS011;32138;50.966;6.968;2022-07-29T04:02:15;6.57;;;2.40;;
46439;SDS011;32138;50.966;6.968;2022-07-29T04:04:16;7.95;;;2.53;;
46439;SDS011;32138;50.966;6.968;2022-07-29T04:06:17;7.40;;;2.65;;
46439;SDS011;32138;50.966;6.968;2022-07-29T04:08:18;7.78;;;2.58;;
46439;SDS011;32138;50.966;6.968;2022-07-29T04:10:18;8.70;;;2.63;;
46439;SDS011;32138;50.966;6.968;2022-07-29T04:12:19;8.68;;;2.92;;
46439;SDS011;32138;50.966;6.968;2022-07-29T04:14:20;6.00;;;2.88;;
46439;SDS011;32138;50.966;6.968;2022-07-29T04:16:21;6.35;;;2.88;;
46439;SDS011;32138;50.966;6.968;2022-07-29T04:18:22;5.32;;;2.38;;
46439;SDS011;32138;50.966;6.968;2022-07-29T04:20:23;8.65;;;2.70;;
46439;SDS011;32138;50.966;6.968;2022-07-29T04:22:24;11.55;;;3.00;;
46439;SDS011;32138;50.966;6.968;2022-07-29T04:24:24;7.60;;;2.80;;
46439;SDS011;32138;50.966;6.968;2022-07-29T04:26:25;4.90;;;2.78;;
46439;SDS011;32138;50.966;6.968;2022-07-29T04:28:26;12.15;;;2.60;;
46439;SDS011;32138;50.966;6.968;2022-07-29T04:30:27;7.80;;;2.38;;
46439;SDS011;32138;50.966;6.968;2022-07-29T04:32:28;7.47;;;2.53;;
46439;SDS011;32138;50.966;6.968;2022-07-29T04:34:29;6.40;;;2.65;;
46439;SDS011;32138;50.966;6.968;2022-07-29T04:36:30;6.88;;;2.17;;
46439;SDS011;32138;50.966;6.968;2022-07-29T04:38:31;9.15;;;2.55;;
46439;SDS011;32138;50.966;6.968;2022-07-29T04:40:31;10.45;;;2.83;;
46439;SDS011;32138;50.966;6.968;2022-07-29T04:42:33;13.60;;;2.83;;
46439;SDS011;32138;50.966;6.968;2022-07-29T04:44:33;6.80;;;2.20;;
46439;SDS011;32138;50.966;6.968;2022-07-29T04:46:35;14.10;;;3.00;;
46439;SDS011;32138;50.966;6.968;2022-07-29T04:48:35;8.88;;;2.85;;
46439;SDS011;32138;50.966;6.968;2022-07-29T04:50:39;9.02;;;2.38;;
46439;SDS011;32138;50.966;6.968;2022-07-29T04:52:40;9.02;;;2.65;;
46439;SDS011;32138;50.966;6.968;2022-07-29T04:54:41;7.38;;;2.97;;
46439;SDS011;32138;50.966;6.968;2022-07-29T04:56:42;6.15;;;2.03;;
46439;SDS011;32138;50.966;6.968;2022-07-29T04:58:43;6.32;;;2.42;;
46439;SDS011;32138;50.966;6.968;2022-07-29T05:00:44;6.75;;;1.98;;
46439;SDS011;32138;50.966;6.968;2022-07-29T05:02:44;6.85;;;2.10;;
46439;SDS011;32138;50.966;6.968;2022-07-29T05:04:45;9.80;;;2.55;;
46439;SDS011;32138;50.966;6.968;2022-07-29T05:06:46;7.28;;;2.45;;
46439;SDS011;32138;50.966;6.968;2022-07-29T05:08:47;21.90;;;2.58;;
46439;SDS011;32138;50.966;6.968;2022-07-29T05:10:48;6.85;;;2.40;;
46439;SDS011;32138;50.966;6.968;2022-07-29T05:12:49;9.55;;;2.78;;
46439;SDS011;32138;50.966;6.968;2022-07-29T05:14:49;5.93;;;1.90;;
46439;SDS011;32138;50.966;6.968;2022-07-29T05:16:50;9.30;;;2.40;;
46439;SDS011;32138;50.966;6.968;2022-07-29T05:18:52;3.85;;;2.08;;
46439;SDS011;32138;50.966;6.968;2022-07-29T05:20:53;7.25;;;2.50;;
46439;SDS011;32138;50.966;6.968;2022-07-29T05:22:58;7.43;;;2.35;;
46439;SDS011;32138;50.966;6.968;2022-07-29T05:24:59;7.30;;;2.17;;
46439;SDS011;32138;50.966;6.968;2022-07-29T05:27:00;5.70;;;2.05;;
46439;SDS011;32138;50.966;6.968;2022-07-29T05:29:01;7.35;;;2.55;;
46439;SDS011;32138;50.966;6.968;2022-07-29T05:31:02;8.90;;;2.38;;
46439;SDS011;32138;50.966;6.968;2022-07-29T05:33:03;9.15;;;2.50;;
46439;SDS011;32138;50.966;6.968;2022-07-29T05:35:04;10.00;;;2.90;;
46439;SDS011;32138;50.966;6.968;2022-07-29T05:37:05;8.77;;;2.42;;
46439;SDS011;32138;50.966;6.968;2022-07-29T05:39:06;4.57;;;2.10;;
46439;SDS011;32138;50.966;6.968;2022-07-29T05:41:07;8.63;;;2.30;;
46439;SDS011;32138;50.966;6.968;2022-07-29T05:43:07;8.77;;;2.72;;
46439;SDS011;32138;50.966;6.968;2022-07-29T05:45:08;13.57;;;3.17;;
46439;SDS011;32138;50.966;6.968;2022-07-29T05:47:10;10.35;;;2.38;;
46439;SDS011;32138;50.966;6.968;2022-07-29T05:49:11;8.65;;;2.65;;
46439;SDS011;32138;50.966;6.968;2022-07-29T05:51:12;5.90;;;2.17;;
46439;SDS011;32138;50.966;6.968;2022-07-29T05:53:12;10.30;;;2.95;;
46439;SDS011;32138;50.966;6.968;2022-07-29T05:55:13;7.80;;;2.38;;
46439;SDS011;32138;50.966;6.968;2022-07-29T05:57:15;4.85;;;2.22;;
46439;SDS011;32138;50.966;6.968;2022-07-29T05:59:21;9.15;;;2.80;;
46439;SDS011;32138;50.966;6.968;2022-07-29T06:01:22;7.55;;;3.03;;
46439;SDS011;32138;50.966;6.968;2022-07-29T06:03:22;8.35;;;2.58;;
46439;SDS011;32138;50.966;6.968;2022-07-29T06:05:23;6.15;;;2.10;;
46439;SDS011;32138;50.966;6.968;2022-07-29T06:07:24;5.95;;;3.15;;
46439;SDS011;32138;50.966;6.968;2022-07-29T06:09:25;9.15;;;2.72;;
46439;SDS011;32138;50.966;6.968;2022-07-29T06:11:26;9.02;;;2.40;;
46439;SDS011;32138;50.966;6.968;2022-07-29T06:13:27;7.20;;;3.13;;
46439;SDS011;32138;50.966;6.968;2022-07-29T06:15:28;6.93;;;2.90;;
46439;SDS011;32138;50.966;6.968;2022-07-29T06:17:29;5.95;;;2.15;;
46439;SDS011;32138;50.966;6.968;2022-07-29T06:19:29;6.55;;;2.85;;
46439;SDS011;32138;50.966;6.968;2022-07-29T06:21:30;10.88;;;3.00;;
46439;SDS011;32138;50.966;6.968;2022-07-29T06:23:31;12.65;;;2.83;;
46439;SDS011;32138;50.966;6.968;2022-07-29T06:25:32;11.30;;;2.97;;
46439;SDS011;32138;50.966;6.968;2022-07-29T06:27:35;11.10;;;2.90;;
46439;SDS011;32138;50.966;6.968;2022-07-29T06:29:36;8.82;;;3.28;;
46439;SDS011;32138;50.966;6.968;2022-07-29T06:31:37;10.98;;;3.28;;
46439;SDS011;32138;50.966;6.968;2022-07-29T06:33:38;8.07;;;2.63;;
46439;SDS011;32138;50.966;6.968;2022-07-29T06:35:39;12.60;;;2.70;;
46439;SDS011;32138;50.966;6.968;2022-07-29T06:37:42;8.70;;;2.53;;
46439;SDS011;32138;50.966;6.968;2022-07-29T06:39:42;15.13;;;4.05;;
46439;SDS011;32138;50.966;6.968;2022-07-29T06:41:46;8.57;;;3.47;;
46439;SDS011;32138;50.966;6.968;2022-07-29T06:43:51;13.20;;;3.63;;
46439;SDS011;32138;50.966;6.968;2022-07-29T06:45:52;6.30;;;2.70;;
46439;SDS011;32138;50.966;6.968;2022-07-29T06:47:53;8.85;;;2.90;;
46439;SDS011;32138;50.966;6.968;2022-07-29T06:49:53;8.57;;;3.00;;
46439;SDS011;32138;50.966;6.968;2022-07-29T06:51:54;8.07;;;2.53;;
46439;SDS011;32138;50.966;6.968;2022-07-29T06:53:55;6.20;;;2.47;;
46439;SDS011;32138;50.966;6.968;2022-07-29T06:55:57;8.63;;;2.90;;
46439;SDS011;32138;50.966;6.968;2022-07-29T06:58:02;6.93;;;2.55;;
46439;SDS011;32138;50.966;6.968;2022-07-29T07:00:03;8.63;;;2.53;;
46439;SDS011;32138;50.966;6.968;2022-07-29T07:02:05;10.38;;;3.00;;
46439;SDS011;32138;50.966;6.968;2022-07-29T07:04:06;9.52;;;2.80;;
46439;SDS011;32138;50.966;6.968;2022-07-29T07:06:08;9.85;;;2.28;;
46439;SDS011;32138;50.966;6.968;2022-07-29T07:08:09;7.68;;;3.03;;
46439;SDS011;32138;50.966;6.968;2022-07-29T07:10:11;9.63;;;2.92;;
46439;SDS011;32138;50.966;6.968;2022-07-29T07:12:12;8.98;;;2.15;;
46439;SDS011;32138;50.966;6.968;2022-07-29T07:14:12;13.23;;;3.10;;
46439;SDS011;32138;50.966;6.968;2022-07-29T07:16:13;10.13;;;3.03;;
46439;SDS011;32138;50.966;6.968;2022-07-29T07:18:14;11.13;;;2.78;;
46439;SDS011;32138;50.966;6.968;2022-07-29T07:20:16;13.80;;;3.05;;
46439;SDS011;32138;50.966;6.968;2022-07-29T07:22:17;9.98;;;2.95;;
46439;SDS011;32138;50.966;6.968;2022-07-29T07:24:18;9.40;;;2.83;;
46439;SDS011;32138;50.966;6.968;2022-07-29T07:26:19;15.40;;;2.75;;
46439;SDS011;32138;50.966;6.968;2022-07-29T07:28:20;9.57;;;2.20;;
46439;SDS011;32138;50.966;6.968;2022-07-29T07:30:20;6.47;;;2.58;;
46439;SDS011;32138;50.966;6.968;2022-07-29T07:32:21;9.05;;;2.22;;
46439;SDS011;32138;50.966;6.968;2022-07-29T07:34:22;12.20;;;2.50;;
46439;SDS011;32138;50.966;6.968;2022-07-29T07:36:23;9.70;;;2.13;;
46439;SDS011;32138;50.966;6.968;2022-07-29T07:38:24;19.02;;;3.03;;
46439;SDS011;32138;50.966;6.968;2022-07-29T07:40:25;8.98;;;3.25;;
46439;SDS011;32138;50.966;6.968;2022-07-29T07:42:26;9.45;;;2.65;;
46439;SDS011;32138;50.966;6.968;2022-07-29T07:44:27;11.65;;;3.00;;
46439;SDS011;32138;50.966;6.968;2022-07-29T07:46:27;11.50;;;2.97;;
46439;SDS011;32138;50.966;6.968;2022-07-29T07:48:28;7.13;;;2.67;;
46439;SDS011;32138;50.966;6.968;2022-07-29T07:50:29;6.22;;;2.88;;
46439;SDS011;32138;50.966;6.968;2022-07-29T07:52:30;7.47;;;2.47;;
46439;SDS011;32138;50.966;6.968;2022-07-29T07:54:31;11.35;;;2.92;;
46439;SDS011;32138;50.966;6.968;2022-07-29T07:56:32;8.38;;;3.22;;
46439;SDS011;32138;50.966;6.968;2022-07-29T07:58:32;11.02;;;2.47;;
46439;SDS011;32138;50.966;6.968;2022-07-29T08:00:35;8.43;;;2.72;;
46439;SDS011;32138;50.966;6.968;2022-07-29T08:02:36;7.97;;;2.80;;
46439;SDS011;32138;50.966;6.968;2022-07-29T08:04:37;11.18;;;3.28;;
46439;SDS011;32138;50.966;6.968;2022-07-29T08:06:40;7.82;;;2.67;;
46439;SDS011;32138;50.966;6.968;2022-07-29T08:08:41;9.73;;;2.90;;
46439;SDS011;32138;50.966;6.968;2022-07-29T08:10:42;10.50;;;3.35;;
46439;SDS011;32138;50.966;6.968;2022-07-29T08:12:58;9.05;;;2.55;;
46439;SDS011;32138;50.966;6.968;2022-07-29T08:15:07;14.93;;;3.33;;
46439;SDS011;32138;50.966;6.968;2022-07-29T08:17:08;9.73;;;3.65;;
46439;SDS011;32138;50.966;6.968;2022-07-29T08:19:09;8.73;;;3.10;;
46439;SDS011;32138;50.966;6.968;2022-07-29T08:21:10;8.50;;;3.20;;
46439;SDS011;32138;50.966;6.968;2022-07-29T08:23:11;10.88;;;2.72;;
46439;SDS011;32138;50.966;6.968;2022-07-29T08:25:12;7.63;;;2.50;;
46439;SDS011;32138;50.966;6.968;2022-07-29T08:27:13;16.08;;;3.33;;
46439;SDS011;32138;50.966;6.968;2022-07-29T08:29:14;8.32;;;3.08;;
46439;SDS011;32138;50.966;6.968;2022-07-29T08:31:16;8.13;;;3.20;;
46439;SDS011;32138;50.966;6.968;2022-07-29T08:33:17;7.93;;;3.20;;
46439;SDS011;32138;50.966;6.968;2022-07-29T08:35:21;11.70;;;3.30;;
46439;SDS011;32138;50.966;6.968;2022-07-29T08:37:23;10.68;;;3.97;;
46439;SDS011;32138;50.966;6.968;2022-07-29T08:39:24;11.30;;;3.63;;
46439;SDS011;32138;50.966;6.968;2022-07-29T08:41:25;8.55;;;3.00;;
46439;SDS011;32138;50.966;6.968;2022-07-29T08:43:27;10.30;;;3.15;;
46439;SDS011;32138;50.966;6.968;2022-07-29T08:45:28;13.20;;;3.08;;
46439;SDS011;32138;50.966;6.968;2022-07-29T08:47:30;15.88;;;3.50;;
46439;SDS011;32138;50.966;6.968;2022-07-29T08:49:32;12.95;;;2.90;;
46439;SDS011;32138;50.966;6.968;2022-07-29T08:51:35;10.65;;;3.58;;
46439;SDS011;32138;50.966;6.968;2022-07-29T08:53:40;12.10;;;3.03;;
46439;SDS011;32138;50.966;6.968;2022-07-29T08:55:43;12.30;;;2.95;;
46439;SDS011;32138;50.966;6.968;2022-07-29T08:57:49;8.68;;;3.40;;
46439;SDS011;32138;50.966;6.968;2022-07-29T08:59:50;12.60;;;3.47;;
46439;SDS011;32138;50.966;6.968;2022-07-29T09:01:54;9.45;;;3.97;;
46439;SDS011;32138;50.966;6.968;2022-07-29T09:04:00;11.48;;;3.75;;
46439;SDS011;32138;50.966;6.968;2022-07-29T09:06:04;12.85;;;3.78;;
46439;SDS011;32138;50.966;6.968;2022-07-29T09:08:05;11.48;;;3.83;;
46439;SDS011;32138;50.966;6.968;2022-07-29T09:10:07;8.77;;;4.28;;
46439;SDS011;32138;50.966;6.968;2022-07-29T09:12:08;11.57;;;4.32;;
46439;SDS011;32138;50.966;6.968;2022-07-29T09:14:12;14.60;;;4.10;;
46439;SDS011;32138;50.966;6.968;2022-07-29T09:16:13;12.40;;;4.13;;
46439;SDS011;32138;50.966;6.968;2022-07-29T09:20:36;10.98;;;4.18;;
46439;SDS011;32138;50.966;6.968;2022-07-29T09:22:56;10.55;;;3.53;;
46439;SDS011;32138;50.966;6.968;2022-07-29T09:24:57;7.72;;;3.75;;
46439;SDS011;32138;50.966;6.968;2022-07-29T09:26:57;8.13;;;3.70;;
46439;SDS011;32138;50.966;6.968;2022-07-29T09:28:58;11.45;;;3.53;;
46439;SDS011;32138;50.966;6.968;2022-07-29T09:31:00;7.20;;;4.35;;
46439;SDS011;32138;50.966;6.968;2022-07-29T09:33:03;9.25;;;3.63;;
46439;SDS011;32138;50.966;6.968;2022-07-29T09:35:13;8.55;;;3.42;;
46439;SDS011;32138;50.966;6.968;2022-07-29T09:37:28;11.10;;;4.03;;
46439;SDS011;32138;50.966;6.968;2022-07-29T09:41:52;12.07;;;3.90;;
46439;SDS011;32138;50.966;6.968;2022-07-29T09:43:55;15.10;;;4.45;;
46439;SDS011;32138;50.966;6.968;2022-07-29T09:46:09;12.68;;;3.78;;
46439;SDS011;32138;50.966;6.968;2022-07-29T09:48:15;11.82;;;4.82;;
46439;SDS011;32138;50.966;6.968;2022-07-29T09:50:17;7.75;;;3.60;;
46439;SDS011;32138;50.966;6.968;2022-07-29T09:52:24;11.02;;;4.00;;
46439;SDS011;32138;50.966;6.968;2022-07-29T09:54:29;12.93;;;4.45;;
46439;SDS011;32138;50.966;6.968;2022-07-29T09:56:39;12.27;;;4.15;;
46439;SDS011;32138;50.966;6.968;2022-07-29T09:58:41;9.43;;;4.43;;
46439;SDS011;32138;50.966;6.968;2022-07-29T10:00:42;9.65;;;4.18;;
46439;SDS011;32138;50.966;6.968;2022-07-29T10:02:46;14.02;;;4.57;;
46439;SDS011;32138;50.966;6.968;2022-07-29T10:04:47;6.28;;;3.40;;
46439;SDS011;32138;50.966;6.968;2022-07-29T10:06:55;11.30;;;4.13;;
46439;SDS011;32138;50.966;6.968;2022-07-29T10:09:07;8.23;;;3.88;;
46439;SDS011;32138;50.966;6.968;2022-07-29T10:11:12;10.25;;;3.85;;
46439;SDS011;32138;50.966;6.968;2022-07-29T10:13:18;12.63;;;3.80;;
46439;SDS011;32138;50.966;6.968;2022-07-29T10:15:18;15.38;;;6.35;;
46439;SDS011;32138;50.966;6.968;2022-07-29T10:17:21;10.68;;;3.20;;
46439;SDS011;32138;50.966;6.968;2022-07-29T10:19:22;7.43;;;3.70;;
46439;SDS011;32138;50.966;6.968;2022-07-29T10:21:27;13.90;;;3.47;;
46439;SDS011;32138;50.966;6.968;2022-07-29T10:23:29;9.50;;;3.75;;
46439;SDS011;32138;50.966;6.968;2022-07-29T10:25:31;12.05;;;3.47;;
46439;SDS011;32138;50.966;6.968;2022-07-29T10:27:32;12.23;;;3.92;;
46439;SDS011;32138;50.966;6.968;2022-07-29T10:29:35;13.77;;;4.88;;
46439;SDS011;32138;50.966;6.968;2022-07-29T10:31:58;7.80;;;3.78;;
46439;SDS011;32138;50.966;6.968;2022-07-29T10:39:32;10.93;;;3.78;;
46439;SDS011;32138;50.966;6.968;2022-07-29T10:44:24;9.27;;;3.85;;
46439;SDS011;32138;50.966;6.968;2022-07-29T10:46:27;7.40;;;3.83;;
46439;SDS011;32138;50.966;6.968;2022-07-29T10:48:28;9.77;;;3.58;;
46439;SDS011;32138;50.966;6.968;2022-07-29T10:50:51;13.18;;;4.00;;
46439;SDS011;32138;50.966;6.968;2022-07-29T10:52:55;8.57;;;3.40;;
46439;SDS011;32138;50.966;6.968;2022-07-29T10:54:57;7.68;;;3.10;;
46439;SDS011;32138;50.966;6.968;2022-07-29T11:01:30;8.70;;;3.55;;
46439;SDS011;32138;50.966;6.968;2022-07-29T11:05:51;7.82;;;2.80;;
46439;SDS011;32138;50.966;6.968;2022-07-29T11:14:56;8.47;;;3.57;;
46439;SDS011;32138;50.966;6.968;2022-07-29T11:16:59;11.75;;;4.18;;
46439;SDS011;32138;50.966;6.968;2022-07-29T11:21:34;7.78;;;3.40;;
46439;SDS011;32138;50.966;6.968;2022-07-29T11:23:38;6.78;;;2.83;;
46439;SDS011;32138;50.966;6.968;2022-07-29T11:25:39;8.85;;;3.70;;
46439;SDS011;32138;50.966;6.968;2022-07-29T11:27:40;5.32;;;3.30;;
46439;SDS011;32138;50.966;6.968;2022-07-29T11:29:48;9.07;;;2.80;;
46439;SDS011;32138;50.966;6.968;2022-07-29T11:31:52;8.60;;;3.13;;
46439;SDS011;32138;50.966;6.968;2022-07-29T11:33:56;7.35;;;2.72;;
46439;SDS011;32138;50.966;6.968;2022-07-29T11:36:13;5.55;;;2.58;;
46439;SDS011;32138;50.966;6.968;2022-07-29T11:38:25;8.63;;;2.42;;
46439;SDS011;32138;50.966;6.968;2022-07-29T11:40:27;11.60;;;4.63;;
46439;SDS011;32138;50.966;6.968;2022-07-29T11:47:00;8.15;;;3.75;;
46439;SDS011;32138;50.966;6.968;2022-07-29T11:49:02;8.38;;;3.25;;
46439;SDS011;32138;50.966;6.968;2022-07-29T11:51:04;6.18;;;3.08;;
46439;SDS011;32138;50.966;6.968;2022-07-29T11:53:11;10.98;;;3.22;;
46439;SDS011;32138;50.966;6.968;2022-07-29T11:55:14;9.27;;;3.40;;
46439;SDS011;32138;50.966;6.968;2022-07-29T11:57:18;9.10;;;3.22;;
46439;SDS011;32138;50.966;6.968;2022-07-29T11:59:20;9.98;;;3.47;;
46439;SDS011;32138;50.966;6.968;2022-07-29T12:01:21;7.88;;;3.05;;
46439;SDS011;32138;50.966;6.968;2022-07-29T12:03:27;6.55;;;2.42;;
46439;SDS011;32138;50.966;6.968;2022-07-29T12:07:38;7.35;;;2.88;;
46439;SDS011;32138;50.966;6.968;2022-07-29T12:09:39;6.57;;;2.40;;
46439;SDS011;32138;50.966;6.968;2022-07-29T12:11:40;6.93;;;2.40;;
46439;SDS011;32138;50.966;6.968;2022-07-29T12:13:41;9.57;;;2.78;;
46439;SDS011;32138;50.966;6.968;2022-07-29T12:15:42;5.97;;;2.70;;
46439;SDS011;32138;50.966;6.968;2022-07-29T12:17:53;6.15;;;2.38;;
46439;SDS011;32138;50.966;6.968;2022-07-29T12:19:58;7.65;;;2.95;;
46439;SDS011;32138;50.966;6.968;2022-07-29T12:22:02;6.25;;;2.03;;
46439;SDS011;32138;50.966;6.968;2022-07-29T12:24:03;8.30;;;2.53;;
46439;SDS011;32138;50.966;6.968;2022-07-29T12:26:04;7.07;;;2.80;;
46439;SDS011;32138;50.966;6.968;2022-07-29T12:28:07;6.93;;;2.65;;
46439;SDS011;32138;50.966;6.968;2022-07-29T12:30:13;7.05;;;2.28;;
46439;SDS011;32138;50.966;6.968;2022-07-29T12:32:18;5.97;;;2.13;;
46439;SDS011;32138;50.966;6.968;2022-07-29T12:34:19;7.32;;;2.15;;
46439;SDS011;32138;50.966;6.968;2022-07-29T12:36:24;8.77;;;2.33;;
46439;SDS011;32138;50.966;6.968;2022-07-29T12:38:24;8.63;;;2.92;;
46439;SDS011;32138;50.966;6.968;2022-07-29T12:40:26;6.72;;;2.50;;
46439;SDS011;32138;50.966;6.968;2022-07-29T12:42:27;5.80;;;1.98;;
46439;SDS011;32138;50.966;6.968;2022-07-29T12:44:42;5.90;;;2.65;;
46439;SDS011;32138;50.966;6.968;2022-07-29T12:47:00;5.97;;;2.17;;
46439;SDS011;32138;50.966;6.968;2022-07-29T12:49:03;4.65;;;2.72;;
46439;SDS011;32138;50.966;6.968;2022-07-29T12:51:04;4.57;;;2.35;;
46439;SDS011;32138;50.966;6.968;2022-07-29T12:53:11;6.68;;;2.60;;
46439;SDS011;32138;50.966;6.968;2022-07-29T12:55:13;6.50;;;2.40;;
46439;SDS011;32138;50.966;6.968;2022-07-29T12:57:14;7.68;;;2.50;;
46439;SDS011;32138;50.966;6.968;2022-07-29T12:59:16;5.88;;;2.35;;
46439;SDS011;32138;50.966;6.968;2022-07-29T13:01:21;6.97;;;2.75;;
46439;SDS011;32138;50.966;6.968;2022-07-29T13:03:22;5.57;;;2.65;;
46439;SDS011;32138;50.966;6.968;2022-07-29T13:05:24;6.32;;;2.63;;
46439;SDS011;32138;50.966;6.968;2022-07-29T13:07:47;12.32;;;3.92;;
46439;SDS011;32138;50.966;6.968;2022-07-29T13:09:50;6.20;;;2.42;;